createdAt,value
2023-06-20T00:02:47.576Z,74.64
2023-06-20T00:12:49.205Z,77.30
2023-06-20T00:22:50.820Z,77.99
2023-06-20T00:32:52.524Z,78.66
2023-06-20T00:42:54.134Z,78.53
2023-06-20T00:52:55.802Z,77.15
2023-06-20T01:02:57.595Z,78.28
2023-06-20T01:12:59.069Z,78.98
2023-06-20T01:23:00.717Z,79.70
2023-06-20T01:33:02.320Z,81.21
2023-06-20T01:43:03.805Z,82.44
2023-06-20T01:53:05.700Z,81.12
2023-06-20T02:03:07.067Z,81.66
2023-06-20T02:13:08.518Z,80.53
2023-06-20T02:23:10.073Z,81.92
2023-06-20T02:33:11.614Z,81.34
2023-06-20T02:43:13.114Z,83.14
2023-06-20T02:53:14.670Z,84.14
2023-06-20T03:03:16.272Z,84.60
2023-06-20T03:13:17.663Z,84.49
2023-06-20T03:23:19.155Z,85.86
2023-06-20T03:33:20.672Z,84.16
2023-06-20T03:43:22.182Z,85.20
2023-06-20T03:53:23.726Z,84.01
2023-06-20T04:03:25.330Z,84.78
2023-06-20T04:33:29.860Z,79.46
2023-06-20T04:43:31.452Z,77.46
2023-06-20T04:53:33.079Z,74.35
2023-06-20T05:03:34.839Z,72.05
2023-06-20T05:13:36.730Z,68.00
2023-06-20T05:23:38.871Z,63.26
2023-06-20T05:33:41.152Z,59.53
2023-06-20T05:43:43.562Z,53.64
2023-06-20T05:53:46.172Z,54.21
2023-06-20T06:03:49.228Z,49.88
2023-06-20T06:23:54.650Z,42.99
2023-06-20T06:33:59.055Z,42.99
2023-06-20T06:44:01.054Z,40.46
2023-06-20T06:54:04.310Z,36.64
2023-06-20T07:04:07.962Z,37.31
2023-06-20T11:31:13.824Z,36.20
2023-06-20T11:41:16.257Z,35.58
2023-06-20T11:51:18.652Z,35.88
2023-06-20T12:01:21.210Z,35.72
2023-06-20T12:11:23.652Z,35.46
2023-06-20T12:21:26.083Z,34.00
2023-06-20T12:31:28.714Z,34.92
2023-06-20T12:41:31.013Z,34.56
2023-06-20T12:51:33.487Z,33.90
2023-06-20T13:01:36.013Z,33.77
2023-06-20T13:11:38.398Z,33.36
2023-06-20T13:21:40.865Z,35.29
2023-06-20T13:31:43.525Z,34.78
2023-06-20T13:41:45.952Z,33.84
2023-06-20T13:51:48.435Z,33.56
2023-06-20T14:01:50.995Z,33.72
2023-06-20T14:11:53.442Z,34.48
2023-06-20T14:21:56.034Z,33.66
2023-06-20T14:31:58.500Z,33.71
2023-06-20T14:42:01.018Z,34.00
2023-06-20T14:52:03.490Z,35.90
2023-06-20T15:02:06.155Z,35.98
2023-06-20T15:12:08.686Z,35.29
2023-06-20T15:32:13.894Z,35.50
2023-06-20T15:42:16.421Z,36.19
2023-06-20T15:52:18.995Z,37.31
2023-06-20T16:02:21.542Z,37.16
2023-06-20T16:12:24.001Z,38.79
2023-06-20T16:22:26.438Z,40.33
2023-06-20T16:32:28.849Z,40.86
2023-06-20T16:42:31.199Z,40.21
2023-06-20T16:52:33.544Z,39.71
2023-06-20T17:02:35.930Z,40.92
2023-06-20T17:12:38.212Z,40.44
2023-06-20T17:22:40.496Z,41.65
2023-06-20T17:32:45.348Z,43.23
2023-06-20T17:42:45.135Z,42.63
2023-06-20T17:52:47.403Z,43.76
2023-06-20T18:02:49.794Z,45.08
2023-06-20T18:12:52.034Z,45.60
2023-06-20T18:22:54.276Z,46.44
2023-06-20T18:32:56.717Z,47.20
2023-06-20T18:42:58.871Z,49.47
2023-06-20T18:53:01.153Z,50.33
2023-06-20T19:03:03.384Z,52.98
2023-06-20T19:13:05.423Z,52.29
2023-06-20T19:33:09.750Z,55.11
2023-06-20T19:43:11.910Z,56.95
2023-06-20T19:53:14.082Z,58.05
2023-06-20T20:03:17.230Z,58.95
2023-06-20T20:13:18.558Z,60.71
2023-06-20T20:23:34.103Z,61.51
2023-06-20T20:33:23.289Z,62.71
2023-06-20T20:43:24.434Z,64.96
2023-06-20T20:53:26.444Z,65.55
2023-06-20T21:03:28.564Z,67.25
2023-06-20T21:13:30.229Z,68.29
2023-06-20T21:23:32.129Z,68.38
2023-06-20T21:33:34.076Z,68.56
2023-06-20T21:43:36.002Z,69.56
2023-06-20T21:53:37.939Z,69.90
2023-06-20T22:03:39.960Z,69.57
2023-06-20T22:13:41.784Z,68.67
2023-06-20T22:23:43.694Z,68.41
2023-06-20T22:33:45.517Z,68.26
2023-06-20T22:43:47.324Z,67.81
2023-06-20T22:53:49.155Z,69.52
2023-06-20T23:03:51.058Z,71.10
2023-06-20T23:13:52.762Z,72.03
2023-06-20T23:33:56.375Z,72.16
2023-06-20T23:43:58.180Z,73.33
2023-06-20T23:53:59.904Z,76.27
